createdAt,value
2023-02-27T00:00:19.743Z,7.70
2023-02-27T00:01:19.775Z,9.00
2023-02-27T00:02:19.828Z,6.80
2023-02-27T00:03:19.714Z,5.90
2023-02-27T00:04:19.679Z,9.60
2023-02-27T00:05:19.707Z,6.50
2023-02-27T00:06:19.735Z,6.90
2023-02-27T00:07:19.660Z,8.50
2023-02-27T00:08:19.664Z,9.20
2023-02-27T00:09:19.638Z,6.40
2023-02-27T00:10:19.648Z,8.70
2023-02-27T00:11:19.685Z,6.30
2023-02-27T00:12:19.618Z,7.50
2023-02-27T00:13:19.599Z,6.70
2023-02-27T00:14:19.574Z,8.50
2023-02-27T00:15:19.625Z,10.10
2023-02-27T00:16:19.628Z,6.80
2023-02-27T00:17:19.563Z,7.60
2023-02-27T00:18:19.546Z,8.00
2023-02-27T00:19:19.513Z,8.70
2023-02-27T00:20:19.560Z,5.60
2023-02-27T00:21:19.516Z,7.00
2023-02-27T00:22:19.504Z,7.90
2023-02-27T00:23:19.475Z,8.50
2023-02-27T00:24:19.487Z,8.00
2023-02-27T00:25:19.479Z,6.40
2023-02-27T00:26:19.464Z,8.10
2023-02-27T00:27:19.471Z,5.70
2023-02-27T00:28:19.457Z,7.50
2023-02-27T00:29:19.400Z,8.90
2023-02-27T00:30:19.386Z,5.70
2023-02-27T00:31:19.421Z,6.90
2023-02-27T00:32:19.380Z,7.30
2023-02-27T00:33:19.474Z,7.30
2023-02-27T00:34:19.384Z,7.20
2023-02-27T00:35:19.391Z,6.90
2023-02-27T00:36:19.362Z,6.50
2023-02-27T00:37:19.346Z,8.00
2023-02-27T00:38:19.342Z,9.10
2023-02-27T00:39:19.352Z,6.40
2023-02-27T00:40:19.290Z,10.40
2023-02-27T00:41:19.310Z,9.10
2023-02-27T00:42:19.268Z,8.00
2023-02-27T00:43:19.252Z,9.20
2023-02-27T00:44:19.296Z,7.70
2023-02-27T00:45:19.311Z,6.80
2023-02-27T00:46:19.254Z,6.50
2023-02-27T00:47:19.201Z,8.00
2023-02-27T00:48:19.180Z,8.90
2023-02-27T00:49:19.199Z,7.50
2023-02-27T00:50:19.167Z,6.70
2023-02-27T00:51:19.188Z,7.70
2023-02-27T00:52:19.189Z,5.90
2023-02-27T00:53:19.149Z,7.90
2023-02-27T00:54:19.173Z,7.80
2023-02-27T00:55:19.137Z,9.20
2023-02-27T00:56:19.133Z,8.20
2023-02-27T00:57:19.135Z,8.20
2023-02-27T00:58:19.075Z,6.90
2023-02-27T00:59:19.112Z,7.50
2023-02-27T01:00:19.079Z,7.60
2023-02-27T01:01:19.056Z,8.40
2023-02-27T01:02:19.473Z,6.90
2023-02-27T01:03:19.039Z,7.20
2023-02-27T01:04:19.051Z,10.30
2023-02-27T01:05:19.011Z,10.40
2023-02-27T01:06:19.020Z,7.90
2023-02-27T01:07:18.988Z,5.90
2023-02-27T01:08:18.998Z,9.20
2023-02-27T01:09:18.998Z,7.80
2023-02-27T01:10:18.951Z,6.90
2023-02-27T01:11:18.921Z,8.30
2023-02-27T01:12:18.922Z,6.90
2023-02-27T01:13:18.947Z,8.20
2023-02-27T01:14:18.987Z,11.20
2023-02-27T01:15:18.885Z,11.30
2023-02-27T01:16:18.903Z,8.80
2023-02-27T01:17:18.895Z,7.10
2023-02-27T01:18:18.877Z,8.70
2023-02-27T01:19:19.888Z,9.70
2023-02-27T01:20:18.848Z,7.70
2023-02-27T01:21:18.819Z,9.00
2023-02-27T01:22:18.828Z,10.10
2023-02-27T01:23:18.815Z,7.40
2023-02-27T01:24:18.793Z,7.60
2023-02-27T01:25:18.783Z,7.10
2023-02-27T01:26:18.781Z,8.30
2023-02-27T01:27:18.784Z,7.80
2023-02-27T01:28:18.738Z,10.70
2023-02-27T01:29:18.782Z,6.80
2023-02-27T01:30:18.744Z,9.50
2023-02-27T01:31:18.817Z,9.20
2023-02-27T01:32:18.855Z,9.30
2023-02-27T01:33:18.691Z,7.70
2023-02-27T01:34:18.709Z,9.80
2023-02-27T01:35:18.672Z,9.50
2023-02-27T01:36:18.648Z,9.00
2023-02-27T01:37:18.692Z,8.80
2023-02-27T01:38:18.618Z,8.60
2023-02-27T01:39:18.648Z,10.40
2023-02-27T01:40:18.629Z,9.40
2023-02-27T01:41:18.612Z,8.90
2023-02-27T01:42:18.597Z,9.80
2023-02-27T01:43:18.587Z,8.90
2023-02-27T01:44:18.574Z,9.10
2023-02-27T01:45:18.560Z,8.10
2023-02-27T01:46:18.612Z,8.80
2023-02-27T01:47:18.582Z,8.70
2023-02-27T01:48:18.503Z,9.40
2023-02-27T01:49:18.527Z,9.50
2023-02-27T01:50:18.520Z,10.90
2023-02-27T01:51:18.494Z,8.60
2023-02-27T01:52:18.518Z,7.90
2023-02-27T01:53:18.470Z,8.00
2023-02-27T01:54:18.460Z,9.10
2023-02-27T01:55:18.459Z,8.50
2023-02-27T01:56:18.428Z,7.60
2023-02-27T01:57:18.455Z,8.40
2023-02-27T01:58:18.420Z,10.10
2023-02-27T01:59:18.428Z,8.70
2023-02-27T02:00:18.419Z,9.40
2023-02-27T02:01:18.499Z,9.30
2023-02-27T02:02:18.415Z,9.60
2023-02-27T02:03:18.364Z,9.40
2023-02-27T02:04:18.373Z,7.90
2023-02-27T02:05:18.349Z,8.30
2023-02-27T02:06:18.320Z,9.90
2023-02-27T02:07:18.329Z,9.60
2023-02-27T02:08:18.304Z,8.10
2023-02-27T02:09:18.306Z,10.20
2023-02-27T02:10:18.305Z,9.00
2023-02-27T02:11:18.271Z,11.60
2023-02-27T02:12:18.312Z,10.00
2023-02-27T02:13:18.267Z,10.10
2023-02-27T02:14:18.235Z,9.60
2023-02-27T02:15:18.221Z,9.60
2023-02-27T02:16:18.213Z,7.90
2023-02-27T02:17:18.230Z,7.60
2023-02-27T02:18:18.298Z,10.00
2023-02-27T02:19:18.184Z,8.90
2023-02-27T02:20:18.168Z,9.60
2023-02-27T02:21:18.138Z,11.60
2023-02-27T02:22:18.176Z,8.50
2023-02-27T02:23:18.208Z,10.70
2023-02-27T02:24:18.163Z,8.10
2023-02-27T02:25:18.125Z,10.40
2023-02-27T02:26:18.129Z,8.10
2023-02-27T02:27:18.103Z,8.90
2023-02-27T02:28:18.106Z,10.40
2023-02-27T02:29:18.050Z,8.80
2023-02-27T02:30:18.065Z,9.70
2023-02-27T02:31:18.130Z,10.10
2023-02-27T02:32:18.284Z,12.80
2023-02-27T02:33:18.016Z,12.00
2023-02-27T02:34:18.009Z,9.70
2023-02-27T02:35:17.993Z,9.40
2023-02-27T02:36:17.989Z,10.80
2023-02-27T02:37:18.029Z,12.10
2023-02-27T02:38:17.964Z,8.60
2023-02-27T02:39:17.939Z,10.60
2023-02-27T02:40:17.942Z,12.10
2023-02-27T02:41:17.939Z,12.80
2023-02-27T02:42:17.910Z,10.70
2023-02-27T02:43:17.938Z,8.60
2023-02-27T02:44:17.905Z,7.90
2023-02-27T02:45:17.879Z,10.30
2023-02-27T02:46:17.898Z,12.90
2023-02-27T02:47:17.853Z,11.20
2023-02-27T02:48:17.868Z,10.70
2023-02-27T02:49:17.831Z,10.90
2023-02-27T02:50:17.818Z,9.20
2023-02-27T02:51:17.794Z,8.50
2023-02-27T02:52:17.792Z,10.50
2023-02-27T02:53:17.895Z,10.10
2023-02-27T02:54:17.811Z,10.10
2023-02-27T02:55:17.775Z,9.00
2023-02-27T02:56:17.758Z,8.10
2023-02-27T02:57:17.741Z,10.30
2023-02-27T02:58:17.749Z,9.80
2023-02-27T02:59:17.767Z,9.10
2023-02-27T03:00:17.741Z,9.40
2023-02-27T03:01:17.734Z,10.30
2023-02-27T03:02:17.702Z,11.00
2023-02-27T03:03:17.724Z,10.40
2023-02-27T03:04:17.740Z,8.70
2023-02-27T03:05:17.637Z,10.40
2023-02-27T03:06:17.632Z,8.60
2023-02-27T03:07:17.654Z,10.50
2023-02-27T03:08:17.654Z,11.00
2023-02-27T03:09:17.651Z,10.10
2023-02-27T03:10:17.626Z,9.80
2023-02-27T03:11:17.592Z,11.20
2023-02-27T03:12:17.573Z,11.60
2023-02-27T03:13:17.614Z,10.90
2023-02-27T03:14:17.561Z,10.40
2023-02-27T03:15:17.543Z,9.90
2023-02-27T03:16:17.559Z,11.20
2023-02-27T03:17:17.521Z,10.60
2023-02-27T03:18:17.520Z,10.90
2023-02-27T03:19:17.513Z,9.50
2023-02-27T03:20:17.510Z,12.30
2023-02-27T03:21:17.467Z,10.70
2023-02-27T03:22:17.475Z,9.80
2023-02-27T03:23:17.501Z,8.40
2023-02-27T03:24:17.449Z,8.70
2023-02-27T03:25:17.437Z,10.70
2023-02-27T03:26:17.417Z,9.30
2023-02-27T03:27:17.402Z,9.40
2023-02-27T03:28:17.477Z,9.10
2023-02-27T03:29:17.425Z,10.40
2023-02-27T03:30:17.379Z,11.60
2023-02-27T03:31:17.499Z,11.90
2023-02-27T03:32:17.376Z,8.50
2023-02-27T03:33:17.361Z,11.40
2023-02-27T03:34:17.357Z,10.20
2023-02-27T03:35:17.328Z,11.20
2023-02-27T03:36:17.307Z,10.60
2023-02-27T03:37:17.301Z,13.90
2023-02-27T03:38:17.306Z,9.80
2023-02-27T03:39:17.275Z,9.90
2023-02-27T03:40:17.265Z,11.50
2023-02-27T03:41:17.269Z,12.70
2023-02-27T03:42:17.274Z,9.10
2023-02-27T03:43:17.247Z,10.10
2023-02-27T03:44:17.231Z,11.70
2023-02-27T03:45:17.236Z,10.30
2023-02-27T03:46:17.274Z,9.70
2023-02-27T03:47:17.247Z,10.10
2023-02-27T03:48:17.197Z,9.60
2023-02-27T03:49:17.210Z,10.10
2023-02-27T03:50:17.188Z,9.60
2023-02-27T03:51:17.139Z,10.80
2023-02-27T03:52:17.154Z,10.20
2023-02-27T03:53:17.149Z,10.40
2023-02-27T03:54:17.144Z,9.00
2023-02-27T03:55:17.114Z,9.50
2023-02-27T03:56:17.107Z,9.00
2023-02-27T03:57:17.100Z,10.50
2023-02-27T03:58:17.119Z,8.50
2023-02-27T03:59:17.080Z,7.70
2023-02-27T04:00:17.028Z,9.90
2023-02-27T04:01:17.036Z,11.30
2023-02-27T04:02:17.078Z,10.30
2023-02-27T04:03:17.041Z,9.50
2023-02-27T04:04:17.022Z,11.20
2023-02-27T04:05:17.021Z,11.60
2023-02-27T04:06:16.963Z,9.40
2023-02-27T04:07:17.006Z,10.30
2023-02-27T04:08:17.006Z,8.90
2023-02-27T04:09:16.982Z,10.00
2023-02-27T04:10:16.940Z,9.80
2023-02-27T04:11:16.936Z,9.90
2023-02-27T04:12:16.917Z,9.30
2023-02-27T04:13:16.935Z,9.40
2023-02-27T04:14:16.905Z,14.90
2023-02-27T04:15:16.915Z,11.90
2023-02-27T04:16:16.914Z,11.30
2023-02-27T04:17:16.864Z,10.50
2023-02-27T04:18:16.833Z,10.10
2023-02-27T04:19:16.839Z,11.50
2023-02-27T04:20:16.859Z,10.70
2023-02-27T04:21:17.074Z,12.00
2023-02-27T04:22:16.798Z,10.30
2023-02-27T04:23:16.787Z,11.40
2023-02-27T04:24:16.833Z,10.40
2023-02-27T04:25:16.781Z,12.70
2023-02-27T04:26:16.801Z,9.40
2023-02-27T04:27:16.744Z,11.20
2023-02-27T04:28:16.749Z,10.80
2023-02-27T04:29:16.712Z,10.60
2023-02-27T04:30:16.737Z,12.80
2023-02-27T04:31:16.876Z,10.40
2023-02-27T04:32:16.786Z,10.60
2023-02-27T04:33:16.692Z,13.70
2023-02-27T04:34:16.662Z,10.10
2023-02-27T04:35:16.657Z,13.50
2023-02-27T04:36:16.667Z,10.20
2023-02-27T04:37:16.660Z,14.30
2023-02-27T04:38:16.678Z,11.30
2023-02-27T04:39:16.619Z,11.60
2023-02-27T04:40:16.647Z,11.80
2023-02-27T04:41:16.613Z,13.90
2023-02-27T04:42:16.618Z,12.00
2023-02-27T04:43:16.607Z,12.70
2023-02-27T04:44:16.641Z,11.10
2023-02-27T04:45:16.565Z,9.50
2023-02-27T04:46:16.557Z,11.40
2023-02-27T04:47:16.518Z,11.30
2023-02-27T04:48:16.513Z,10.90
2023-02-27T04:49:16.515Z,10.70
2023-02-27T04:50:16.494Z,11.00
2023-02-27T04:51:16.586Z,11.20
2023-02-27T04:52:16.471Z,14.10
2023-02-27T04:53:16.462Z,11.40
2023-02-27T04:54:16.448Z,12.50
2023-02-27T04:55:16.459Z,13.60
2023-02-27T04:56:16.425Z,11.70
2023-02-27T04:57:16.410Z,13.30
2023-02-27T04:58:16.414Z,13.30
2023-02-27T04:59:16.391Z,14.10
2023-02-27T05:00:16.374Z,12.50
2023-02-27T05:01:16.413Z,11.70
2023-02-27T05:02:16.531Z,10.70
2023-02-27T05:03:16.341Z,11.50
2023-02-27T05:04:16.402Z,12.60
2023-02-27T05:05:16.320Z,11.50
2023-02-27T05:06:16.376Z,12.60
2023-02-27T05:07:16.333Z,14.70
2023-02-27T05:08:16.343Z,10.80
2023-02-27T05:09:16.274Z,10.10
2023-02-27T05:10:16.267Z,11.50
2023-02-27T05:11:16.279Z,12.80
2023-02-27T05:12:16.275Z,11.60
2023-02-27T05:13:16.233Z,13.60
2023-02-27T05:14:16.220Z,12.60
2023-02-27T05:15:16.211Z,11.50
2023-02-27T05:16:16.238Z,13.40
2023-02-27T05:17:16.187Z,11.30
2023-02-27T05:18:16.251Z,13.00
2023-02-27T05:19:16.171Z,13.00
2023-02-27T05:20:16.157Z,14.00
2023-02-27T05:21:16.149Z,12.90
2023-02-27T05:22:16.136Z,12.40
2023-02-27T05:23:16.132Z,12.70
2023-02-27T05:24:16.156Z,12.20
2023-02-27T05:25:16.110Z,15.10
2023-02-27T05:26:16.092Z,11.90
2023-02-27T05:27:16.082Z,12.10
2023-02-27T05:28:16.069Z,13.40
2023-02-27T05:29:16.113Z,11.70
2023-02-27T05:30:16.042Z,14.70
2023-02-27T05:31:16.111Z,11.90
2023-02-27T05:32:16.129Z,12.50
2023-02-27T05:33:16.046Z,14.60
2023-02-27T05:34:16.014Z,13.50
2023-02-27T05:35:16.041Z,14.00
2023-02-27T05:36:16.013Z,11.90
2023-02-27T05:37:15.988Z,14.60
2023-02-27T05:38:15.974Z,13.40
2023-02-27T05:39:15.952Z,12.50
2023-02-27T05:40:15.967Z,15.00
2023-02-27T05:41:15.967Z,13.90
2023-02-27T05:42:15.927Z,13.90
2023-02-27T05:43:15.910Z,13.20
2023-02-27T05:44:15.894Z,11.10
2023-02-27T05:45:15.879Z,13.70
2023-02-27T05:46:15.924Z,13.00
2023-02-27T05:47:15.888Z,12.30
2023-02-27T05:48:17.815Z,11.80
2023-02-27T05:49:15.911Z,11.30
2023-02-27T05:50:15.850Z,15.00
2023-02-27T05:51:15.828Z,14.70
2023-02-27T05:52:15.806Z,12.30
2023-02-27T05:53:15.823Z,13.20
2023-02-27T05:54:15.799Z,15.70
2023-02-27T05:55:17.788Z,13.20
2023-02-27T05:56:15.765Z,14.80
2023-02-27T05:57:15.757Z,13.40
2023-02-27T05:58:15.742Z,14.00
2023-02-27T05:59:15.772Z,13.00
2023-02-27T06:00:15.742Z,14.70
2023-02-27T06:01:15.710Z,13.30
2023-02-27T06:02:15.734Z,13.70
2023-02-27T06:03:15.724Z,14.60
2023-02-27T06:04:15.695Z,14.00
2023-02-27T06:05:15.685Z,17.30
2023-02-27T06:06:15.685Z,12.40
2023-02-27T06:07:15.664Z,12.60
2023-02-27T06:08:15.656Z,14.20
2023-02-27T06:09:15.629Z,13.70
2023-02-27T06:10:15.622Z,13.30
2023-02-27T06:11:15.811Z,14.20
2023-02-27T06:12:15.595Z,14.70
2023-02-27T06:13:15.600Z,14.00
2023-02-27T06:14:15.591Z,12.10
2023-02-27T06:15:15.565Z,12.20
2023-02-27T06:16:15.586Z,14.00
2023-02-27T06:17:15.586Z,14.50
2023-02-27T06:18:15.527Z,12.70
2023-02-27T06:19:15.513Z,14.20
2023-02-27T06:20:15.524Z,11.90
2023-02-27T06:21:15.501Z,13.70
2023-02-27T06:22:15.478Z,12.20
2023-02-27T06:23:15.497Z,14.90
2023-02-27T06:24:15.465Z,11.80
2023-02-27T06:25:15.447Z,15.80
2023-02-27T06:26:15.435Z,13.20
2023-02-27T06:27:15.432Z,14.10
2023-02-27T06:28:15.407Z,13.00
2023-02-27T06:29:15.474Z,13.70
2023-02-27T06:30:15.401Z,16.10
2023-02-27T06:31:15.428Z,14.50
2023-02-27T06:32:15.430Z,12.50
2023-02-27T06:33:15.385Z,14.00
2023-02-27T06:34:15.345Z,15.20
2023-02-27T06:35:15.393Z,12.20
2023-02-27T06:36:15.380Z,12.00
2023-02-27T06:37:15.313Z,12.40
2023-02-27T06:38:15.310Z,14.20
2023-02-27T06:39:15.300Z,15.10
2023-02-27T06:40:15.275Z,14.40
2023-02-27T06:41:15.340Z,13.80
2023-02-27T06:42:15.255Z,12.80
2023-02-27T06:43:15.297Z,17.60
2023-02-27T06:44:15.244Z,14.30
2023-02-27T06:45:15.257Z,14.40
2023-02-27T06:46:15.273Z,13.60
2023-02-27T06:47:15.243Z,13.10
2023-02-27T06:48:15.214Z,14.10
2023-02-27T06:49:15.204Z,16.30
2023-02-27T06:50:15.196Z,13.10
2023-02-27T06:51:15.173Z,15.60
2023-02-27T06:52:15.193Z,15.70
2023-02-27T06:53:15.192Z,13.90
2023-02-27T06:54:15.130Z,14.00
2023-02-27T06:55:15.152Z,12.90
2023-02-27T06:56:15.098Z,14.20
2023-02-27T06:57:15.091Z,12.80
2023-02-27T06:58:15.113Z,16.50
2023-02-27T06:59:15.130Z,13.40
2023-02-27T07:00:15.064Z,14.30
2023-02-27T07:01:15.138Z,16.30
2023-02-27T07:02:15.041Z,13.00
2023-02-27T07:03:15.027Z,14.50
2023-02-27T07:04:15.032Z,13.40
2023-02-27T07:05:15.066Z,14.30
2023-02-27T07:06:14.986Z,15.40
2023-02-27T07:07:34.078Z,16.40
2023-02-27T07:08:15.015Z,14.80
2023-02-27T07:09:14.967Z,14.00
2023-02-27T07:10:14.986Z,14.50
2023-02-27T07:11:14.944Z,13.30
2023-02-27T07:12:15.010Z,14.30
2023-02-27T07:13:17.817Z,12.60
2023-02-27T07:14:14.903Z,14.60
2023-02-27T07:15:14.933Z,15.90
2023-02-27T07:16:18.137Z,16.50
2023-02-27T07:17:15.842Z,12.90
2023-02-27T07:18:14.904Z,14.30
2023-02-27T07:19:18.097Z,14.10
2023-02-27T07:20:16.671Z,16.70
2023-02-27T07:21:24.360Z,16.70
2023-02-27T07:22:15.418Z,13.70
2023-02-27T07:23:15.795Z,15.80
2023-02-27T07:24:14.804Z,16.00
2023-02-27T07:25:14.803Z,12.80
2023-02-27T07:26:14.773Z,12.20
2023-02-27T07:27:14.874Z,14.20
2023-02-27T07:28:15.003Z,14.30
2023-02-27T07:29:14.847Z,12.60
2023-02-27T07:30:14.813Z,15.10
2023-02-27T07:31:14.810Z,12.20
2023-02-27T07:32:14.822Z,13.70
2023-02-27T07:33:14.763Z,14.40
2023-02-27T07:34:14.706Z,14.30
2023-02-27T07:35:14.716Z,12.30
2023-02-27T07:36:14.694Z,14.60
2023-02-27T07:37:14.690Z,12.90
2023-02-27T07:38:14.693Z,12.10
2023-02-27T07:39:14.664Z,15.20
2023-02-27T07:40:14.631Z,13.80
2023-02-27T07:41:29.530Z,12.50
2023-02-27T07:42:14.624Z,15.80
2023-02-27T07:43:14.658Z,13.70
2023-02-27T07:44:14.611Z,15.70
2023-02-27T07:45:14.605Z,14.00
2023-02-27T07:46:14.682Z,15.70
2023-02-27T07:47:14.578Z,14.00
2023-02-27T07:48:14.573Z,12.80
2023-02-27T07:49:14.534Z,11.90
2023-02-27T07:50:14.535Z,14.50
2023-02-27T07:51:14.508Z,14.90
2023-02-27T07:52:14.506Z,12.60
2023-02-27T07:53:14.572Z,14.30
2023-02-27T07:54:14.495Z,14.30
2023-02-27T07:55:14.480Z,12.90
2023-02-27T07:56:14.494Z,11.70
2023-02-27T07:57:14.485Z,13.60
2023-02-27T07:58:14.462Z,13.20
2023-02-27T07:59:14.468Z,13.00
2023-02-27T08:00:14.471Z,15.10
2023-02-27T08:01:14.438Z,16.00
2023-02-27T08:02:14.438Z,16.30
2023-02-27T08:03:14.427Z,12.40
2023-02-27T08:04:14.406Z,13.50
2023-02-27T08:05:14.394Z,13.80
2023-02-27T08:06:14.355Z,13.10
2023-02-27T08:07:14.361Z,12.70
2023-02-27T08:08:14.363Z,15.00
2023-02-27T08:09:14.309Z,13.30
2023-02-27T08:10:14.332Z,13.00
2023-02-27T08:11:14.293Z,16.20
2023-02-27T08:12:14.301Z,13.80
2023-02-27T08:13:14.296Z,16.00
2023-02-27T08:14:14.266Z,14.50
2023-02-27T08:15:14.239Z,12.90
2023-02-27T08:16:14.336Z,11.30
2023-02-27T08:17:15.102Z,12.80
2023-02-27T08:18:14.252Z,14.70
2023-02-27T08:19:14.208Z,13.10
2023-02-27T08:20:15.304Z,15.50
2023-02-27T08:21:14.173Z,14.10
2023-02-27T08:22:14.326Z,13.80
2023-02-27T08:23:15.495Z,14.70
2023-02-27T08:24:14.158Z,17.90
2023-02-27T08:25:14.150Z,15.20
2023-02-27T08:26:14.156Z,13.30
2023-02-27T08:27:14.150Z,13.30
2023-02-27T08:28:14.172Z,12.60
2023-02-27T08:29:16.119Z,12.70
2023-02-27T08:30:14.184Z,11.40
2023-02-27T08:31:14.183Z,13.50
2023-02-27T08:32:14.148Z,11.70
2023-02-27T08:33:14.402Z,14.00
2023-02-27T08:34:14.103Z,11.80
2023-02-27T08:35:14.058Z,12.00
2023-02-27T08:36:14.099Z,12.30
2023-02-27T08:37:14.023Z,9.50
2023-02-27T08:38:14.049Z,12.60
2023-02-27T08:39:14.037Z,10.40
2023-02-27T08:40:13.970Z,10.40
2023-02-27T08:41:14.027Z,10.20
2023-02-27T08:42:14.160Z,10.40
2023-02-27T08:43:13.980Z,13.00
2023-02-27T08:44:13.948Z,10.90
2023-02-27T08:45:13.938Z,11.00
2023-02-27T08:46:13.938Z,13.80
2023-02-27T08:47:13.935Z,10.70
2023-02-27T08:48:14.372Z,10.40
2023-02-27T08:49:13.929Z,11.70
2023-02-27T08:50:13.872Z,10.50
2023-02-27T08:51:13.905Z,10.60
2023-02-27T08:52:13.834Z,10.50
2023-02-27T08:53:13.873Z,10.70
2023-02-27T08:54:13.793Z,12.40
2023-02-27T08:55:13.787Z,12.50
2023-02-27T08:56:13.830Z,9.30
2023-02-27T08:57:13.770Z,10.30
2023-02-27T08:58:13.786Z,11.80
2023-02-27T08:59:13.754Z,12.20
2023-02-27T09:00:13.743Z,9.40
2023-02-27T09:01:13.791Z,8.70
2023-02-27T09:02:13.714Z,9.10
2023-02-27T09:03:13.712Z,10.10
2023-02-27T09:04:13.714Z,8.90
2023-02-27T09:05:13.688Z,9.30
2023-02-27T09:06:13.658Z,12.70
2023-02-27T09:07:13.660Z,11.30
2023-02-27T09:08:13.635Z,9.90
2023-02-27T09:09:13.678Z,10.90
2023-02-27T09:10:13.619Z,13.00
2023-02-27T09:11:13.622Z,9.00
2023-02-27T09:12:13.599Z,8.30
2023-02-27T09:13:13.588Z,8.20
2023-02-27T09:14:13.568Z,11.60
2023-02-27T09:15:13.606Z,8.10
2023-02-27T09:16:13.672Z,10.40
2023-02-27T09:17:13.536Z,10.90
2023-02-27T09:18:13.561Z,10.30
2023-02-27T09:19:13.522Z,10.20
2023-02-27T09:20:13.554Z,10.90
2023-02-27T09:21:13.497Z,8.80
2023-02-27T09:22:13.500Z,9.70
2023-02-27T09:23:13.474Z,10.90
2023-02-27T09:24:20.270Z,11.00
2023-02-27T09:25:13.501Z,11.20
2023-02-27T09:26:13.467Z,10.50
2023-02-27T09:27:13.445Z,7.90
2023-02-27T09:28:13.468Z,12.90
2023-02-27T09:29:13.408Z,10.00
2023-02-27T09:30:13.400Z,10.60
2023-02-27T09:31:13.464Z,9.70
2023-02-27T09:32:13.488Z,10.00
2023-02-27T09:33:13.380Z,9.10
2023-02-27T09:34:13.349Z,9.10
2023-02-27T09:35:13.345Z,10.00
2023-02-27T09:36:13.356Z,11.40
2023-02-27T09:37:13.362Z,9.50
2023-02-27T09:38:13.308Z,11.20
2023-02-27T09:39:13.313Z,8.90
2023-02-27T09:40:13.276Z,7.80
2023-02-27T09:41:13.346Z,6.90
2023-02-27T09:42:13.256Z,11.30
2023-02-27T09:43:13.323Z,11.00
2023-02-27T09:44:13.243Z,9.80
2023-02-27T09:45:13.233Z,10.20
2023-02-27T09:46:13.260Z,10.80
2023-02-27T09:47:13.218Z,9.30
2023-02-27T09:48:13.198Z,10.60
2023-02-27T09:49:13.196Z,7.80
2023-02-27T09:50:13.162Z,10.80
2023-02-27T09:51:13.166Z,11.40
2023-02-27T09:52:13.172Z,8.20
2023-02-27T09:53:13.140Z,9.30
2023-02-27T09:54:13.121Z,9.90
2023-02-27T09:55:13.124Z,8.00
2023-02-27T09:56:13.149Z,9.80
2023-02-27T09:57:13.118Z,8.40
2023-02-27T09:58:13.096Z,11.10
2023-02-27T09:59:13.086Z,7.40
2023-02-27T10:00:13.129Z,8.10
2023-02-27T10:01:13.055Z,7.50
2023-02-27T10:02:13.138Z,7.90
2023-02-27T10:03:13.110Z,6.40
2023-02-27T10:04:13.019Z,8.20
2023-02-27T10:05:13.005Z,8.50
2023-02-27T10:06:13.003Z,8.20
2023-02-27T10:07:13.034Z,9.10
2023-02-27T10:08:12.966Z,8.90
2023-02-27T10:09:12.982Z,8.60
2023-02-27T10:10:12.944Z,8.00
2023-02-27T10:11:12.945Z,8.60
2023-02-27T10:12:12.935Z,8.80
2023-02-27T10:13:12.937Z,8.90
2023-02-27T10:14:12.903Z,8.90
2023-02-27T10:15:12.902Z,9.50
2023-02-27T10:16:12.891Z,9.30
2023-02-27T10:17:12.867Z,9.00
2023-02-27T10:18:25.434Z,9.10
2023-02-27T10:19:12.857Z,8.30
2023-02-27T10:20:12.845Z,9.70
2023-02-27T10:21:12.829Z,8.90
2023-02-27T10:22:12.820Z,7.70
2023-02-27T10:23:12.823Z,7.90
2023-02-27T10:24:12.785Z,7.70
2023-02-27T10:25:29.682Z,9.10
2023-02-27T10:26:12.774Z,10.30
2023-02-27T10:27:12.760Z,8.20
2023-02-27T10:28:12.736Z,8.60
2023-02-27T10:29:12.781Z,9.30
2023-02-27T10:30:17.356Z,9.80
2023-02-27T10:31:12.784Z,6.30
2023-02-27T10:32:12.764Z,8.80
2023-02-27T10:33:12.706Z,7.60
2023-02-27T10:34:12.705Z,7.50
2023-02-27T10:35:12.685Z,7.20
2023-02-27T10:36:23.563Z,7.10
2023-02-27T10:37:12.658Z,7.50
2023-02-27T10:38:12.689Z,8.10
2023-02-27T10:39:12.655Z,7.20
2023-02-27T10:40:12.654Z,6.40
2023-02-27T10:41:12.608Z,9.00
2023-02-27T10:42:12.607Z,7.90
2023-02-27T10:43:12.584Z,7.40
2023-02-27T10:44:12.592Z,6.10
2023-02-27T10:45:12.554Z,5.80
2023-02-27T10:46:12.617Z,6.10
2023-02-27T10:47:12.542Z,5.70
2023-02-27T10:48:12.529Z,5.90
2023-02-27T10:49:12.514Z,3.80
2023-02-27T10:50:12.535Z,7.80
2023-02-27T10:51:12.476Z,8.90
2023-02-27T10:52:12.486Z,5.60
2023-02-27T10:53:12.497Z,5.80
2023-02-27T10:54:12.458Z,9.10
2023-02-27T10:55:12.499Z,5.60
2023-02-27T10:56:12.441Z,7.10
2023-02-27T10:57:12.408Z,8.00
2023-02-27T10:58:12.431Z,6.10
2023-02-27T10:59:12.395Z,7.70
2023-02-27T11:00:12.456Z,7.70
2023-02-27T11:01:12.421Z,6.40
2023-02-27T11:02:12.362Z,10.00
2023-02-27T11:03:12.347Z,7.00
2023-02-27T11:04:12.355Z,8.40
2023-02-27T11:05:12.321Z,6.20
2023-02-27T11:06:12.330Z,6.80
2023-02-27T11:07:12.308Z,7.50
2023-02-27T11:08:12.301Z,6.90
2023-02-27T11:09:12.279Z,9.20
2023-02-27T11:10:12.308Z,7.50
2023-02-27T11:11:12.283Z,7.40
2023-02-27T11:12:12.266Z,6.40
2023-02-27T11:13:12.239Z,6.50
2023-02-27T11:14:12.221Z,4.90
2023-02-27T11:15:12.202Z,5.40
2023-02-27T11:16:12.317Z,5.90
2023-02-27T11:17:12.203Z,5.40
2023-02-27T11:18:12.183Z,7.60
2023-02-27T11:19:14.423Z,6.40
2023-02-27T11:20:12.154Z,5.40
2023-02-27T11:21:12.159Z,6.60
2023-02-27T11:22:12.229Z,7.20
2023-02-27T11:23:12.142Z,7.30
2023-02-27T11:24:12.111Z,6.60
2023-02-27T11:25:12.106Z,5.50
2023-02-27T11:26:12.091Z,4.60
2023-02-27T11:27:12.130Z,8.40
2023-02-27T11:28:12.066Z,5.10
2023-02-27T11:29:12.051Z,6.50
2023-02-27T11:30:12.043Z,5.10
2023-02-27T11:31:12.075Z,6.40
2023-02-27T11:32:12.063Z,6.30
2023-02-27T11:33:12.023Z,4.70
2023-02-27T11:34:12.005Z,6.60
2023-02-27T11:35:12.003Z,5.60
2023-02-27T11:36:12.063Z,8.40
2023-02-27T11:37:11.980Z,7.00
2023-02-27T11:38:11.981Z,6.50
2023-02-27T11:39:11.941Z,5.00
2023-02-27T11:40:11.947Z,6.10
2023-02-27T11:41:11.928Z,5.90
2023-02-27T11:42:11.915Z,6.50
2023-02-27T11:43:11.959Z,8.60
2023-02-27T11:44:11.891Z,10.30
2023-02-27T11:45:11.897Z,5.20
2023-02-27T11:46:36.968Z,7.70
2023-02-27T11:47:11.890Z,5.80
2023-02-27T11:48:11.858Z,5.90
2023-02-27T11:49:11.866Z,6.10
2023-02-27T11:50:11.832Z,6.20
2023-02-27T11:51:11.816Z,7.40
2023-02-27T11:52:11.799Z,7.40
2023-02-27T11:53:11.787Z,5.60
2023-02-27T11:54:11.831Z,8.60
2023-02-27T11:55:11.783Z,6.90
2023-02-27T11:56:11.760Z,7.10
2023-02-27T11:57:11.742Z,6.80
2023-02-27T11:58:11.730Z,6.20
2023-02-27T11:59:11.710Z,5.90
2023-02-27T12:00:11.750Z,6.20
2023-02-27T12:01:11.717Z,6.40
2023-02-27T12:02:11.679Z,6.00
2023-02-27T12:03:11.876Z,5.00
2023-02-27T12:04:11.723Z,5.80
2023-02-27T12:05:11.650Z,5.50
2023-02-27T12:06:11.656Z,4.60
2023-02-27T12:07:11.630Z,7.50
2023-02-27T12:08:11.613Z,4.60
2023-02-27T12:09:11.609Z,4.10
2023-02-27T12:10:11.640Z,4.90
2023-02-27T12:11:14.502Z,6.80
2023-02-27T12:12:11.583Z,7.90
2023-02-27T12:13:11.557Z,5.10
2023-02-27T12:14:11.572Z,6.10
2023-02-27T12:15:11.583Z,6.80
2023-02-27T12:16:11.563Z,6.50
2023-02-27T12:17:11.535Z,5.70
2023-02-27T12:18:11.509Z,5.50
2023-02-27T12:19:11.489Z,6.40
2023-02-27T12:20:11.502Z,6.00
2023-02-27T12:21:11.475Z,5.40
2023-02-27T12:22:11.481Z,5.00
2023-02-27T12:23:11.455Z,5.10
2023-02-27T12:24:11.435Z,3.90
2023-02-27T12:25:11.484Z,6.60
2023-02-27T12:26:11.413Z,5.70
2023-02-27T12:27:11.612Z,5.90
2023-02-27T12:28:11.418Z,7.30
2023-02-27T12:29:11.377Z,7.70
2023-02-27T12:30:11.377Z,5.80
2023-02-27T12:31:11.403Z,5.00
2023-02-27T12:32:11.455Z,5.90
2023-02-27T12:33:11.352Z,7.40
2023-02-27T12:34:11.335Z,4.20
2023-02-27T12:35:11.383Z,4.10
2023-02-27T12:36:11.316Z,4.40
2023-02-27T12:37:11.287Z,5.00
2023-02-27T12:38:11.372Z,5.50
2023-02-27T12:39:11.253Z,4.60
2023-02-27T12:40:11.252Z,4.40
2023-02-27T12:41:11.278Z,3.60
2023-02-27T12:42:11.227Z,4.40
2023-02-27T12:43:11.240Z,4.80
2023-02-27T12:44:11.198Z,4.80
2023-02-27T12:45:11.202Z,5.40
2023-02-27T12:46:11.236Z,3.60
2023-02-27T12:47:11.174Z,4.50
2023-02-27T12:48:11.155Z,3.80
2023-02-27T12:49:11.748Z,4.80
2023-02-27T12:50:11.165Z,4.90
2023-02-27T12:51:11.129Z,5.30
2023-02-27T12:52:11.122Z,5.50
2023-02-27T12:53:11.111Z,2.80
2023-02-27T12:54:11.091Z,3.40
2023-02-27T12:55:11.114Z,4.10
2023-02-27T12:56:11.087Z,5.80
2023-02-27T12:57:11.049Z,4.30
2023-02-27T12:58:11.058Z,6.10
2023-02-27T12:59:11.026Z,4.10
2023-02-27T13:00:11.068Z,3.70
2023-02-27T13:01:11.061Z,6.00
2023-02-27T13:02:10.997Z,5.60
2023-02-27T13:03:11.002Z,5.10
2023-02-27T13:04:11.064Z,3.70
2023-02-27T13:05:10.965Z,5.50